createdAt,value
2018-02-08T00:01:44.276Z,76.87
2018-02-08T00:04:11.781Z,77.87
2018-02-08T00:06:39.253Z,82.13
2018-02-08T00:09:06.696Z,81.23
2018-02-08T00:11:34.170Z,89.53
2018-02-08T00:14:01.641Z,78.47
2018-02-08T00:16:29.125Z,78.23
2018-02-08T00:18:56.595Z,83.10
2018-02-08T00:21:24.053Z,76.60
2018-02-08T00:23:51.554Z,81.03
2018-02-08T00:26:19.001Z,75.07
2018-02-08T00:28:46.469Z,76.93
2018-02-08T00:31:13.932Z,74.20
2018-02-08T00:33:41.382Z,79.67
2018-02-08T00:36:09.041Z,88.13
2018-02-08T00:38:36.584Z,80.73
2018-02-08T00:41:04.068Z,79.17
2018-02-08T00:43:31.537Z,70.90
2018-02-08T00:45:58.985Z,77.80
2018-02-08T00:48:26.456Z,69.33
2018-02-08T00:50:53.904Z,69.83
2018-02-08T00:53:21.348Z,77.37
2018-02-08T00:55:48.897Z,75.47
2018-02-08T00:58:16.345Z,73.27
2018-02-08T01:00:44.009Z,77.70
2018-02-08T01:03:11.457Z,71.33
2018-02-08T01:05:38.948Z,71.73
2018-02-08T01:08:06.412Z,68.27
2018-02-08T01:10:33.859Z,73.87
2018-02-08T01:13:01.503Z,74.30
2018-02-08T01:15:28.948Z,80.40
2018-02-08T01:17:56.416Z,78.00
2018-02-08T01:20:23.892Z,78.90
2018-02-08T01:22:51.333Z,73.77
2018-02-08T01:25:18.990Z,68.50
2018-02-08T01:27:46.437Z,73.87
2018-02-08T01:30:13.914Z,73.43
2018-02-08T01:32:41.516Z,73.80
2018-02-08T01:35:08.972Z,68.20
2018-02-08T01:37:36.581Z,72.60
2018-02-08T01:40:04.037Z,72.63
2018-02-08T01:42:31.486Z,66.20
2018-02-08T01:44:58.953Z,68.43
2018-02-08T01:47:26.632Z,77.60
2018-02-08T01:49:54.485Z,69.90
2018-02-08T01:52:21.940Z,69.97
2018-02-08T01:54:49.385Z,69.00
2018-02-08T01:57:16.857Z,77.13
2018-02-08T01:59:44.312Z,71.90
2018-02-08T02:02:11.965Z,65.67
2018-02-08T02:04:39.417Z,75.90
2018-02-08T02:07:06.881Z,68.20
2018-02-08T02:09:34.348Z,78.90
2018-02-08T02:12:01.859Z,79.93
2018-02-08T02:14:29.340Z,76.53
2018-02-08T02:16:56.804Z,66.47
2018-02-08T02:19:24.254Z,75.27
2018-02-08T02:21:51.784Z,61.97
2018-02-08T02:24:19.233Z,73.90
2018-02-08T02:26:46.938Z,67.37
2018-02-08T02:29:14.396Z,77.77
2018-02-08T02:31:41.942Z,77.80
2018-02-08T02:34:09.424Z,66.13
2018-02-08T02:36:36.920Z,67.73
2018-02-08T02:39:04.396Z,74.03
2018-02-08T02:41:31.841Z,73.50
2018-02-08T02:43:59.677Z,68.30
2018-02-08T02:46:27.173Z,67.70
2018-02-08T02:48:54.622Z,72.33
2018-02-08T02:51:22.222Z,68.90
2018-02-08T02:53:49.719Z,75.73
2018-02-08T02:56:17.161Z,82.97
2018-02-08T02:58:44.662Z,65.80
2018-02-08T03:01:12.113Z,66.27
2018-02-08T03:03:39.589Z,65.50
2018-02-08T03:06:07.065Z,63.40
2018-02-08T03:08:34.544Z,66.33
2018-02-08T03:11:02.005Z,65.43
2018-02-08T03:13:29.484Z,66.13
2018-02-08T03:15:57.104Z,59.83
2018-02-08T03:18:24.550Z,58.33
2018-02-08T03:20:52.006Z,74.60
2018-02-08T03:23:19.481Z,66.77
2018-02-08T03:25:46.929Z,54.60
2018-02-08T03:28:14.410Z,66.10
2018-02-08T03:30:43.389Z,59.83
2018-02-08T03:33:10.846Z,63.67
2018-02-08T03:35:38.314Z,74.10
2018-02-08T03:38:05.756Z,62.27
2018-02-08T03:40:33.240Z,62.33
2018-02-08T03:43:00.697Z,60.90
2018-02-08T03:45:28.161Z,60.87
2018-02-08T03:47:55.624Z,69.43
2018-02-08T03:50:23.098Z,60.07
2018-02-08T03:52:50.580Z,62.87
2018-02-08T03:55:18.035Z,59.37
2018-02-08T03:57:45.492Z,59.07
2018-02-08T04:00:12.972Z,61.33
2018-02-08T04:02:40.434Z,56.47
2018-02-08T04:05:08.167Z,62.60
2018-02-08T04:07:35.609Z,62.87
2018-02-08T04:10:03.061Z,52.27
2018-02-08T04:12:30.542Z,57.27
2018-02-08T04:14:57.993Z,54.73
2018-02-08T04:17:25.752Z,57.10
2018-02-08T04:19:53.200Z,59.13
2018-02-08T04:22:20.657Z,58.40
2018-02-08T04:24:48.126Z,65.07
2018-02-08T04:27:15.608Z,60.47
2018-02-08T04:29:43.262Z,57.50
2018-02-08T04:32:10.712Z,69.07
2018-02-08T04:34:38.212Z,62.40
2018-02-08T04:37:05.678Z,65.87
2018-02-08T04:39:44.915Z,64.90
2018-02-08T04:42:24.197Z,62.53
2018-02-08T04:45:03.498Z,66.50
2018-02-08T04:50:31.858Z,58.40
2018-02-08T04:52:59.576Z,66.77
2018-02-08T04:55:27.045Z,72.37
2018-02-08T04:57:54.504Z,66.97
2018-02-08T05:00:22.009Z,62.07
2018-02-08T05:02:53.041Z,61.00
2018-02-08T05:05:20.541Z,69.73
2018-02-08T05:07:47.988Z,61.93
2018-02-08T05:10:15.441Z,61.73
2018-02-08T05:12:42.916Z,66.27
2018-02-08T05:15:10.401Z,67.00
2018-02-08T05:17:38.137Z,61.87
2018-02-08T05:20:05.593Z,67.13
2018-02-08T05:22:33.046Z,66.63
2018-02-08T05:25:00.513Z,62.53
2018-02-08T05:27:27.961Z,70.67
2018-02-08T05:29:55.435Z,72.23
2018-02-08T05:32:22.881Z,63.17
2018-02-08T05:34:50.324Z,68.17
2018-02-08T05:37:17.805Z,78.23
2018-02-08T05:39:45.265Z,71.10
2018-02-08T05:42:12.750Z,72.57
2018-02-08T05:44:40.206Z,81.80
2018-02-08T05:47:07.653Z,76.13
2018-02-08T05:49:35.141Z,73.93
2018-02-08T05:52:02.590Z,73.67
2018-02-08T05:54:30.200Z,63.23
2018-02-08T05:56:57.681Z,75.53
2018-02-08T05:59:25.134Z,72.40
2018-02-08T06:01:52.812Z,67.47
2018-02-08T06:04:20.275Z,72.97
2018-02-08T06:06:47.761Z,76.37
2018-02-08T06:09:15.209Z,73.77
2018-02-08T06:11:42.661Z,71.47
2018-02-08T06:14:10.132Z,70.17
2018-02-08T06:16:37.584Z,66.77
2018-02-08T06:19:05.063Z,65.73
2018-02-08T06:21:32.517Z,61.97
2018-02-08T06:23:59.970Z,60.83
2018-02-08T06:26:27.440Z,73.33
2018-02-08T06:28:54.935Z,72.60
2018-02-08T06:31:22.452Z,62.60
2018-02-08T06:33:49.900Z,60.27
2018-02-08T06:36:17.380Z,63.83
2018-02-08T06:38:44.854Z,67.13
2018-02-08T06:41:12.319Z,71.33
2018-02-08T06:43:40.133Z,61.17
2018-02-08T06:46:07.609Z,66.13
2018-02-08T06:48:35.084Z,63.03
2018-02-08T06:51:02.556Z,67.93
2018-02-08T06:53:30.012Z,68.23
2018-02-08T06:55:58.049Z,59.50
2018-02-08T06:58:25.876Z,57.70
2018-02-08T07:00:53.673Z,55.17
2018-02-08T07:03:21.225Z,61.43
2018-02-08T07:05:50.324Z,69.70
2018-02-08T07:08:19.700Z,62.70
2018-02-08T07:10:49.798Z,67.60
2018-02-08T07:13:18.856Z,56.73
2018-02-08T07:15:47.579Z,65.60
2018-02-08T07:18:15.080Z,60.83
2018-02-08T07:20:42.552Z,65.43
2018-02-08T07:23:10.001Z,54.50
2018-02-08T07:25:37.487Z,54.60
2018-02-08T07:28:04.933Z,58.83
2018-02-08T07:30:32.428Z,53.30
2018-02-08T07:32:59.894Z,66.43
2018-02-08T07:35:27.342Z,56.57
2018-02-08T07:37:54.883Z,54.87
2018-02-08T07:40:22.337Z,56.17
2018-02-08T07:42:49.793Z,54.73
2018-02-08T07:45:17.278Z,51.03
2018-02-08T07:47:44.728Z,65.23
2018-02-08T07:50:12.425Z,53.67
2018-02-08T07:52:39.885Z,56.53
2018-02-08T07:55:07.337Z,56.73
2018-02-08T07:57:34.804Z,62.37
2018-02-08T08:00:02.253Z,56.70
2018-02-08T08:02:30.061Z,55.10
2018-02-08T08:04:57.513Z,65.87
2018-02-08T08:07:24.980Z,54.67
2018-02-08T08:09:52.453Z,49.57
2018-02-08T08:12:19.925Z,58.30
2018-02-08T08:14:47.637Z,54.03
2018-02-08T08:17:15.141Z,52.67
2018-02-08T08:19:42.610Z,61.77
2018-02-08T08:22:10.093Z,63.83
2018-02-08T08:24:37.549Z,66.03
2018-02-08T08:27:05.024Z,64.47
2018-02-08T08:29:32.483Z,58.27
2018-02-08T08:31:59.933Z,58.50
2018-02-08T08:34:27.409Z,55.87
2018-02-08T08:36:54.864Z,53.13
2018-02-08T08:39:22.565Z,57.37
2018-02-08T08:41:50.017Z,52.10
2018-02-08T08:44:17.526Z,68.40
2018-02-08T08:46:45.002Z,56.13
2018-02-08T08:49:12.457Z,54.97
2018-02-08T08:51:39.932Z,60.13
2018-02-08T08:54:07.464Z,52.70
2018-02-08T08:56:34.935Z,53.17
2018-02-08T08:59:02.401Z,60.83
2018-02-08T09:01:29.849Z,55.60
2018-02-08T09:03:57.576Z,53.53
2018-02-08T09:06:25.025Z,50.53
2018-02-08T09:08:52.475Z,62.33
2018-02-08T09:11:19.970Z,68.60
2018-02-08T09:13:47.884Z,55.37
2018-02-08T09:16:15.353Z,58.20
2018-02-08T09:18:42.825Z,66.33
2018-02-08T09:21:10.273Z,57.60
2018-02-08T09:23:37.760Z,62.80
2018-02-08T09:26:05.210Z,56.90
2018-02-08T09:28:32.830Z,61.27
2018-02-08T09:31:00.287Z,62.77
2018-02-08T09:33:27.738Z,54.17
2018-02-08T09:35:55.204Z,59.37
2018-02-08T09:38:22.651Z,58.17
2018-02-08T09:40:50.365Z,56.60
2018-02-08T09:43:17.830Z,65.77
2018-02-08T09:45:45.329Z,59.23
2018-02-08T09:48:12.793Z,62.77
2018-02-08T09:50:40.241Z,61.07
2018-02-08T09:53:07.750Z,68.43
2018-02-08T09:55:35.215Z,64.43
2018-02-08T09:58:02.682Z,60.87
2018-02-08T10:00:30.156Z,57.20
2018-02-08T10:02:57.601Z,58.77
2018-02-08T10:05:25.101Z,73.87
2018-02-08T10:07:52.549Z,67.60
2018-02-08T10:10:19.997Z,61.47
2018-02-08T10:12:47.504Z,64.57
2018-02-08T10:15:14.969Z,55.97
2018-02-08T10:17:42.600Z,56.43
2018-02-08T10:20:10.060Z,65.37
2018-02-08T10:22:37.876Z,62.47
2018-02-08T10:25:05.361Z,62.70
2018-02-08T10:27:32.804Z,58.23
2018-02-08T10:30:00.472Z,56.53
2018-02-08T10:32:28.108Z,71.90
2018-02-08T10:34:55.730Z,66.47
2018-02-08T10:37:23.211Z,59.07
2018-02-08T10:39:50.677Z,62.27
2018-02-08T10:42:18.476Z,63.57
2018-02-08T10:44:45.929Z,64.23
2018-02-08T10:47:13.392Z,62.30
2018-02-08T10:49:40.860Z,62.20
2018-02-08T10:52:08.305Z,59.70
2018-02-08T10:54:35.957Z,63.27
2018-02-08T10:57:03.414Z,60.23
2018-02-08T10:59:30.869Z,65.10
2018-02-08T11:01:58.336Z,71.87
2018-02-08T11:04:25.784Z,65.73
2018-02-08T11:06:53.272Z,65.33
2018-02-08T11:09:20.728Z,65.77
2018-02-08T11:11:48.199Z,65.20
2018-02-08T11:14:15.669Z,62.83
2018-02-08T11:16:43.130Z,56.60
2018-02-08T11:19:10.927Z,67.73
2018-02-08T11:21:38.372Z,68.37
2018-02-08T11:24:05.820Z,63.87
2018-02-08T11:26:33.300Z,63.83
2018-02-08T11:29:00.757Z,78.27
2018-02-08T11:31:28.231Z,65.97
2018-02-08T11:33:55.689Z,65.23
2018-02-08T11:36:23.133Z,62.00
2018-02-08T11:38:50.625Z,69.60
2018-02-08T11:41:18.097Z,70.10
2018-02-08T11:43:45.799Z,64.50
2018-02-08T11:46:13.244Z,70.00
2018-02-08T11:48:40.690Z,64.40
2018-02-08T11:51:08.165Z,65.70
2018-02-08T11:53:35.613Z,66.47
2018-02-08T11:56:03.286Z,67.83
2018-02-08T11:58:30.738Z,71.83
2018-02-08T12:00:58.184Z,61.97
2018-02-08T12:03:25.657Z,69.43
2018-02-08T12:05:53.107Z,67.33
2018-02-08T12:08:20.770Z,61.50
2018-02-08T12:10:48.292Z,66.77
2018-02-08T12:13:15.789Z,67.00
2018-02-08T12:15:43.256Z,59.17
2018-02-08T12:18:10.705Z,66.07
2018-02-08T12:20:38.409Z,66.00
2018-02-08T12:23:05.819Z,71.10
2018-02-08T12:25:33.281Z,63.77
2018-02-08T12:28:01.709Z,65.17
2018-02-08T12:30:29.164Z,57.93
2018-02-08T12:32:56.777Z,67.60
2018-02-08T12:35:24.243Z,73.50
2018-02-08T12:37:51.705Z,68.10
2018-02-08T12:40:19.194Z,65.43
2018-02-08T12:42:46.640Z,64.87
2018-02-08T12:45:14.237Z,58.37
2018-02-08T12:47:41.684Z,63.23
2018-02-08T12:50:09.136Z,56.10
2018-02-08T12:52:36.688Z,59.53
2018-02-08T12:55:04.137Z,60.10
2018-02-08T12:57:31.992Z,73.87
2018-02-08T12:59:59.488Z,64.10
2018-02-08T13:02:26.932Z,55.27
2018-02-08T13:04:54.428Z,61.43
2018-02-08T13:07:21.899Z,57.63
2018-02-08T13:09:49.537Z,53.67
2018-02-08T13:12:16.985Z,57.77
2018-02-08T13:14:44.437Z,58.50
2018-02-08T13:17:11.915Z,64.17
2018-02-08T13:19:39.367Z,62.33
2018-02-08T13:22:07.080Z,59.23
2018-02-08T13:24:34.531Z,64.83
2018-02-08T13:27:01.981Z,66.60
2018-02-08T13:29:29.453Z,56.90
2018-02-08T13:31:57.433Z,62.73
2018-02-08T13:34:24.910Z,59.17
2018-02-08T13:36:52.361Z,61.03
2018-02-08T13:39:25.465Z,60.60
2018-02-08T13:41:52.921Z,58.10
2018-02-08T13:44:20.450Z,60.67
2018-02-08T13:46:47.932Z,59.80
2018-02-08T13:49:31.266Z,63.10
2018-02-08T13:55:10.377Z,56.60
2018-02-08T13:57:38.818Z,58.60
2018-02-08T14:00:12.324Z,54.83
2018-02-08T14:02:39.789Z,64.37
2018-02-08T14:05:07.264Z,53.70
2018-02-08T14:07:34.974Z,63.60
2018-02-08T14:10:02.509Z,57.87
2018-02-08T14:12:29.970Z,63.33
2018-02-08T14:14:57.433Z,58.07
2018-02-08T14:17:24.877Z,56.50
2018-02-08T14:19:52.569Z,52.80
2018-02-08T14:22:20.072Z,54.87
2018-02-08T14:24:47.521Z,60.40
2018-02-08T14:27:14.998Z,57.90
2018-02-08T14:29:42.446Z,70.60
2018-02-08T14:32:10.579Z,62.20
2018-02-08T14:34:38.038Z,58.87
2018-02-08T14:37:05.543Z,57.23
2018-02-08T14:39:33.015Z,64.20
2018-02-08T14:42:00.478Z,60.70
2018-02-08T14:44:28.205Z,57.67
2018-02-08T14:46:55.655Z,56.67
2018-02-08T14:49:23.220Z,54.73
2018-02-08T14:51:50.693Z,59.00
2018-02-08T14:54:18.137Z,56.50
2018-02-08T14:56:45.961Z,66.90
2018-02-08T14:59:13.501Z,54.40
2018-02-08T15:01:40.988Z,62.20
2018-02-08T15:04:08.463Z,62.70
2018-02-08T15:06:35.909Z,64.33
2018-02-08T15:09:03.589Z,60.93
2018-02-08T15:11:33.242Z,63.97
2018-02-08T15:14:00.958Z,60.67
2018-02-08T15:16:28.425Z,56.67
2018-02-08T15:18:55.886Z,53.23
2018-02-08T15:21:23.500Z,61.13
2018-02-08T15:23:50.944Z,57.57
2018-02-08T15:26:18.394Z,59.60
2018-02-08T15:28:45.861Z,62.30
2018-02-08T15:31:13.353Z,55.33
2018-02-08T15:33:40.981Z,63.13
2018-02-08T15:36:08.430Z,58.43
2018-02-08T15:38:35.893Z,55.70
2018-02-08T15:41:03.366Z,60.43
2018-02-08T15:43:30.814Z,65.23
2018-02-08T15:45:58.677Z,57.90
2018-02-08T15:48:26.127Z,71.90
2018-02-08T15:50:53.605Z,61.47
2018-02-08T15:53:21.074Z,58.23
2018-02-08T15:55:48.517Z,58.80
2018-02-08T15:58:16.920Z,65.67
2018-02-08T16:00:44.373Z,61.27
2018-02-08T16:03:11.834Z,54.90
2018-02-08T16:05:39.322Z,52.47
2018-02-08T16:08:06.773Z,54.30
2018-02-08T16:10:34.469Z,53.73
2018-02-08T16:13:01.915Z,55.17
2018-02-08T16:15:29.368Z,58.73
2018-02-08T16:17:56.837Z,47.33
2018-02-08T16:20:24.310Z,60.60
2018-02-08T16:22:52.085Z,69.63
2018-02-08T16:25:19.531Z,56.80
2018-02-08T16:27:47.016Z,69.27
2018-02-08T16:30:14.552Z,61.37
2018-02-08T16:32:41.953Z,61.00
2018-02-08T16:35:09.531Z,65.53
2018-02-08T16:37:37.018Z,65.10
2018-02-08T16:40:04.473Z,63.17
2018-02-08T16:42:31.937Z,81.10
2018-02-08T16:44:59.410Z,76.87
2018-02-08T16:47:27.224Z,64.53
2018-02-08T16:49:54.669Z,83.77
2018-02-08T16:52:22.122Z,65.17
2018-02-08T16:54:49.592Z,73.53
2018-02-08T16:57:17.037Z,65.30
2018-02-08T16:59:44.516Z,66.43
2018-02-08T17:02:12.005Z,64.17
2018-02-08T17:04:39.453Z,66.97
2018-02-08T17:07:06.925Z,66.37
2018-02-08T17:09:34.368Z,71.63
2018-02-08T17:12:01.834Z,66.13
2018-02-08T17:14:29.332Z,63.97
2018-02-08T17:16:56.781Z,70.30
2018-02-08T17:19:24.226Z,65.67
2018-02-08T17:21:51.697Z,71.90
2018-02-08T17:24:19.570Z,70.77
2018-02-08T17:26:47.030Z,62.60
2018-02-08T17:29:14.801Z,80.63
2018-02-08T17:31:42.261Z,68.70
2018-02-08T17:34:09.744Z,73.10
2018-02-08T17:36:37.224Z,65.97
2018-02-08T17:39:04.693Z,66.03
2018-02-08T17:41:32.147Z,63.83
2018-02-08T17:43:59.677Z,66.80
2018-02-08T17:49:01.034Z,64.43
2018-02-08T17:51:28.532Z,73.33
2018-02-08T17:53:56.020Z,65.17
2018-02-08T17:56:23.701Z,66.33
2018-02-08T17:58:51.168Z,60.60
2018-02-08T18:01:18.646Z,58.87
2018-02-08T18:03:46.424Z,71.63
2018-02-08T18:06:13.916Z,67.80
2018-02-08T18:08:41.381Z,55.80
2018-02-08T18:11:08.872Z,69.50
2018-02-08T18:13:36.357Z,71.90
2018-02-08T18:16:04.157Z,74.30
2018-02-08T18:18:31.648Z,63.80
2018-02-08T18:20:59.101Z,61.47
2018-02-08T18:23:26.586Z,69.70
2018-02-08T18:25:54.039Z,64.60
2018-02-08T18:28:21.524Z,65.00
2018-02-08T18:30:49.022Z,60.30
2018-02-08T18:33:16.475Z,77.23
2018-02-08T18:35:43.949Z,74.30
2018-02-08T18:38:11.401Z,83.33
2018-02-08T18:40:39.287Z,92.93
2018-02-08T18:43:06.741Z,98.70
2018-02-08T18:45:34.196Z,82.20
2018-02-08T18:48:01.688Z,88.37
2018-02-08T18:50:29.137Z,89.10
2018-02-08T18:52:56.718Z,82.83
2018-02-08T18:55:24.175Z,96.87
2018-02-08T18:57:51.623Z,85.33
2018-02-08T19:00:19.120Z,89.00
2018-02-08T19:02:46.580Z,71.53
2018-02-08T19:05:14.090Z,92.00
2018-02-08T19:07:41.541Z,79.00
2018-02-08T19:10:09.090Z,83.73
2018-02-08T19:12:36.628Z,95.83
2018-02-08T19:15:04.118Z,87.73
2018-02-08T19:17:32.025Z,88.33
2018-02-08T19:19:59.503Z,86.93
2018-02-08T19:22:26.955Z,84.20
2018-02-08T19:24:54.424Z,78.37
2018-02-08T19:27:21.891Z,80.27
2018-02-08T19:29:49.598Z,91.10
2018-02-08T19:32:17.069Z,96.73
2018-02-08T19:34:44.525Z,85.20
2018-02-08T19:37:12.205Z,92.43
2018-02-08T19:39:39.661Z,87.33
2018-02-08T19:42:07.555Z,96.63
2018-02-08T19:44:35.075Z,90.00
2018-02-08T19:47:02.549Z,83.50
2018-02-08T19:49:30.160Z,94.47
2018-02-08T19:51:57.614Z,93.37
2018-02-08T19:54:25.407Z,86.00
2018-02-08T19:56:52.917Z,85.47
2018-02-08T19:59:20.387Z,81.13
2018-02-08T20:01:47.943Z,95.53
2018-02-08T20:04:15.429Z,91.70
2018-02-08T20:06:44.348Z,87.60
2018-02-08T20:09:12.793Z,96.67
2018-02-08T20:11:40.287Z,89.80
2018-02-08T20:14:13.705Z,76.50
2018-02-08T20:16:41.233Z,93.43
2018-02-08T20:19:09.032Z,84.40
2018-02-08T20:21:36.533Z,82.50
2018-02-08T20:24:04.524Z,85.20
2018-02-08T20:26:32.210Z,71.93
2018-02-08T20:28:59.874Z,76.27
2018-02-08T20:31:28.979Z,73.80
2018-02-08T20:33:56.474Z,79.00
2018-02-08T20:36:23.999Z,88.40
2018-02-08T20:38:51.507Z,88.23
2018-02-08T20:41:19.005Z,74.97
2018-02-08T20:43:46.482Z,78.17
2018-02-08T20:46:13.972Z,79.60
2018-02-08T20:48:41.847Z,80.90
2018-02-08T20:51:09.319Z,94.70
2018-02-08T20:53:37.376Z,81.53
2018-02-08T20:56:05.318Z,75.90
2018-02-08T20:58:32.829Z,79.80
2018-02-08T21:01:00.592Z,82.33
2018-02-08T21:03:28.185Z,90.47
2018-02-08T21:05:55.749Z,76.93
2018-02-08T21:08:23.349Z,95.13
2018-02-08T21:10:50.819Z,84.67
2018-02-08T21:13:18.644Z,98.50
2018-02-08T21:15:46.092Z,76.37
2018-02-08T21:18:13.610Z,87.73
2018-02-08T21:20:41.105Z,80.77
2018-02-08T21:23:08.562Z,85.53
2018-02-08T21:25:36.243Z,80.70
2018-02-08T21:28:03.836Z,83.13
2018-02-08T21:30:31.341Z,83.67
2018-02-08T21:32:58.814Z,69.97
2018-02-08T21:35:26.309Z,82.97
2018-02-08T21:37:53.798Z,76.30
2018-02-08T21:40:21.245Z,95.07
2018-02-08T21:42:48.693Z,82.87
2018-02-08T21:45:16.167Z,73.80
2018-02-08T21:47:43.618Z,79.30
2018-02-08T21:50:11.296Z,83.13
2018-02-08T21:52:38.803Z,82.17
2018-02-08T21:55:06.285Z,80.87
2018-02-08T21:57:34.206Z,80.13
2018-02-08T22:00:01.982Z,80.43
2018-02-08T22:02:29.606Z,81.03
2018-02-08T22:04:57.088Z,99.67
2018-02-08T22:07:24.608Z,88.57
2018-02-08T22:09:52.410Z,91.37
2018-02-08T22:12:19.913Z,84.47
2018-02-08T22:14:47.443Z,78.67
2018-02-08T22:17:14.913Z,79.33
2018-02-08T22:19:42.398Z,78.40
2018-02-08T22:22:09.889Z,81.53
2018-02-08T22:24:37.383Z,73.03
2018-02-08T22:27:05.094Z,77.70
2018-02-08T22:29:32.540Z,70.40
2018-02-08T22:31:59.989Z,85.40
2018-02-08T22:34:27.477Z,80.13
2018-02-08T22:36:54.952Z,76.13
2018-02-08T22:39:22.689Z,85.50
2018-02-08T22:41:50.202Z,76.83
2018-02-08T22:44:17.642Z,67.73
2018-02-08T22:46:45.113Z,76.97
2018-02-08T22:49:12.580Z,76.17
2018-02-08T22:51:40.080Z,83.00
2018-02-08T22:54:07.529Z,78.07
2018-02-08T22:56:35.840Z,75.07
2018-02-08T22:59:03.321Z,88.47
2018-02-08T23:01:30.775Z,79.63
2018-02-08T23:03:58.491Z,81.33
2018-02-08T23:06:25.961Z,85.30
2018-02-08T23:08:53.413Z,80.40
2018-02-08T23:11:20.899Z,91.17
2018-02-08T23:13:48.361Z,82.43
2018-02-08T23:16:15.976Z,82.03
2018-02-08T23:18:43.433Z,91.77
2018-02-08T23:21:10.889Z,85.67
2018-02-08T23:23:38.365Z,87.33
2018-02-08T23:26:05.819Z,86.47
2018-02-08T23:28:33.314Z,80.53
2018-02-08T23:31:00.777Z,81.43
2018-02-08T23:33:28.247Z,84.17
2018-02-08T23:35:55.764Z,85.33
2018-02-08T23:38:23.229Z,86.50
2018-02-08T23:40:50.941Z,92.97
2018-02-08T23:43:18.394Z,88.70
2018-02-08T23:45:45.852Z,89.47
2018-02-08T23:48:13.320Z,79.73
2018-02-08T23:50:40.777Z,81.03
2018-02-08T23:53:08.445Z,89.17
2018-02-08T23:55:35.896Z,90.60
2018-02-08T23:58:03.363Z,86.83
